createdAt,value
2023-02-05T00:03:32.985Z,-2.4
2023-02-05T00:09:11.521Z,-2.4
2023-02-05T00:14:34.661Z,-2.4
2023-02-05T00:20:11.618Z,-2.5
2023-02-05T00:25:50.749Z,-2.6
2023-02-05T00:31:29.474Z,-2.6
2023-02-05T00:37:07.442Z,-2.6
2023-02-05T00:42:46.044Z,-2.7
2023-02-05T00:48:23.732Z,-2.8
2023-02-05T00:54:02.252Z,-2.8
2023-02-05T00:59:41.686Z,-2.9
2023-02-05T01:05:19.365Z,-2.9
2023-02-05T01:10:56.651Z,-2.9
2023-02-05T01:16:35.483Z,-3
2023-02-05T01:22:13.210Z,-3
2023-02-05T01:27:51.445Z,-3.1
2023-02-05T01:33:30.808Z,-3.1
2023-02-05T01:39:08.511Z,-3.1
2023-02-05T01:44:31.059Z,-3.2
2023-02-05T01:50:24.080Z,-3.2
2023-02-05T01:56:00.876Z,-3.3
2023-02-05T02:01:37.690Z,-3.3
2023-02-05T02:07:16.491Z,-3.3
2023-02-05T02:12:54.507Z,-3.3
2023-02-05T02:18:31.958Z,-3.4
2023-02-05T02:24:10.101Z,-3.4
2023-02-05T02:29:33.317Z,-3.4
2023-02-05T02:35:11.173Z,-3.5
2023-02-05T02:40:49.604Z,-3.5
2023-02-05T02:46:12.529Z,-3.6
2023-02-05T02:51:50.384Z,-3.6
2023-02-05T02:56:57.711Z,-3.6
2023-02-05T03:02:25.105Z,-3.7
2023-02-05T03:18:02.282Z,-3.8
2023-02-05T03:23:24.712Z,-3.9
2023-02-05T03:29:03.351Z,-3.9
2023-02-05T03:34:25.417Z,-4
2023-02-05T03:40:03.935Z,-4.1
2023-02-05T03:45:42.590Z,-4.1
2023-02-05T03:51:26.273Z,-4.1
2023-02-05T03:56:47.817Z,-4.2
2023-02-05T04:02:26.158Z,-4.2
2023-02-05T04:07:48.162Z,-4.3
2023-02-05T04:13:11.143Z,-4.3
2023-02-05T04:18:34.827Z,-4.3
2023-02-05T04:23:57.326Z,-4.4
2023-02-05T04:29:35.603Z,-4.4
2023-02-05T04:35:14.435Z,-4.5
2023-02-05T04:40:52.394Z,-4.5
2023-02-05T04:46:14.878Z,-4.6
2023-02-05T04:51:52.430Z,-4.6
2023-02-05T04:57:30.144Z,-4.6
2023-02-05T05:02:52.338Z,-4.7
2023-02-05T05:08:30.548Z,-4.7
2023-02-05T05:13:52.667Z,-4.8
2023-02-05T05:19:31.436Z,-4.8
2023-02-05T05:25:09.749Z,-4.8
2023-02-05T05:30:47.073Z,-4.9
2023-02-05T05:36:25.257Z,-4.9
2023-02-05T05:42:03.632Z,-4.9
2023-02-05T05:47:41.408Z,-4.9
2023-02-05T05:53:18.394Z,-5
2023-02-05T05:58:57.278Z,-5
2023-02-05T06:04:34.798Z,-5
2023-02-05T06:10:12.984Z,-5.1
2023-02-05T06:15:38.140Z,-5
2023-02-05T06:21:16.356Z,-5
2023-02-05T06:26:54.078Z,-5
2023-02-05T06:32:33.158Z,-4.9
2023-02-05T06:38:25.014Z,-4.9
2023-02-05T06:44:03.319Z,-4.7
2023-02-05T06:49:41.984Z,-4.6
2023-02-05T06:55:04.458Z,-4.5
2023-02-05T07:00:42.351Z,-4.4
2023-02-05T07:06:20.952Z,-4.3
2023-02-05T07:11:59.593Z,-4.1
2023-02-05T07:17:21.911Z,-4
2023-02-05T07:23:00.562Z,-3.8
2023-02-05T07:28:22.913Z,-3.6
2023-02-05T07:34:00.948Z,-3.3
2023-02-05T07:39:24.269Z,-2.9
2023-02-05T07:45:02.114Z,-2.6
2023-02-05T07:50:25.543Z,-2.3
2023-02-05T07:56:03.996Z,-1.9
2023-02-05T08:01:56.041Z,-1.6
2023-02-05T08:07:34.588Z,-1.3
2023-02-05T08:13:13.826Z,-0.8
2023-02-05T08:18:58.562Z,-0.1
2023-02-05T08:24:36.145Z,0.6
2023-02-05T08:30:14.691Z,1.4
2023-02-05T08:35:37.270Z,2.3
2023-02-05T08:40:59.656Z,3.2
2023-02-05T08:46:49.148Z,4.3
2023-02-05T08:52:29.379Z,5.5
2023-02-05T08:58:07.915Z,6.6
2023-02-05T09:03:46.749Z,7.2
2023-02-05T09:22:17.769Z,6.8
2023-02-05T09:27:56.615Z,6.9
2023-02-05T09:33:35.014Z,7.1
2023-02-05T09:40:12.249Z,7.4
2023-02-05T09:45:56.965Z,7.9
2023-02-05T09:51:36.222Z,8.4
2023-02-05T09:57:15.879Z,8.8
2023-02-05T10:03:00.817Z,8.9
2023-02-05T10:08:38.370Z,8.9
2023-02-05T10:13:59.910Z,8.8
2023-02-05T10:19:39.019Z,8.9
2023-02-05T10:25:16.658Z,8.9
2023-02-05T10:30:55.359Z,9.1
2023-02-05T10:36:34.559Z,9.3
2023-02-05T10:41:56.458Z,9.6
2023-02-05T10:47:37.551Z,9.8
2023-02-05T10:53:16.429Z,10.2
2023-02-05T10:58:53.644Z,10.8
2023-02-05T11:04:32.099Z,12.1
2023-02-05T11:10:10.730Z,13.7
2023-02-05T11:15:34.703Z,14.8
2023-02-05T11:21:12.766Z,16.9
2023-02-05T11:26:51.427Z,18.6
2023-02-05T11:38:17.086Z,18.4
2023-02-05T11:43:55.939Z,17.9
2023-02-05T11:49:34.249Z,17.5
2023-02-05T11:54:57.042Z,17.6
2023-02-05T12:00:46.511Z,21.6
2023-02-05T12:06:24.891Z,25
2023-02-05T12:12:02.383Z,24.5
2023-02-05T12:17:44.014Z,22.8
2023-02-05T12:23:20.918Z,21.3
2023-02-05T12:28:59.120Z,19.7
2023-02-05T12:34:23.231Z,18.3
2023-02-05T12:40:14.598Z,17.2
2023-02-05T12:45:37.326Z,16.5
2023-02-05T12:51:16.004Z,16.4
2023-02-05T12:56:53.180Z,16.7
2023-02-05T13:02:31.199Z,17.3
2023-02-05T13:08:10.215Z,17.3
2023-02-05T13:13:48.185Z,16.9
2023-02-05T13:19:27.171Z,16.3
2023-02-05T13:25:05.226Z,15.5
2023-02-05T13:30:50.320Z,14.5
2023-02-05T13:36:33.175Z,13.5
2023-02-05T13:42:15.051Z,12.5
2023-02-05T13:47:53.413Z,11.6
2023-02-05T13:53:32.881Z,10.7
2023-02-05T13:58:56.015Z,9.8
2023-02-05T14:04:34.862Z,9
2023-02-05T14:10:18.461Z,8.3
2023-02-05T14:16:02.944Z,7.5
2023-02-05T14:21:41.193Z,6.9
2023-02-05T14:27:06.425Z,6.3
2023-02-05T14:32:47.170Z,5.6
2023-02-05T14:38:20.156Z,5
2023-02-05T14:43:48.628Z,4.4
2023-02-05T14:49:27.634Z,3.9
2023-02-05T14:54:49.738Z,3.4
2023-02-05T15:00:28.162Z,2.9
2023-02-05T15:05:38.354Z,2.4
2023-02-05T15:11:16.383Z,2
2023-02-05T15:16:54.953Z,1.6
2023-02-05T15:22:23.423Z,1.1
2023-02-05T15:28:01.978Z,0.8
2023-02-05T15:33:24.787Z,0.4
2023-02-05T15:39:03.131Z,0.1
2023-02-05T15:44:40.891Z,-0.3
2023-02-05T15:50:18.552Z,-0.6
2023-02-05T15:55:56.917Z,-0.9
2023-02-05T16:01:19.332Z,-1.2
2023-02-05T16:06:57.936Z,-1.4
2023-02-05T16:12:21.224Z,-1.7
2023-02-05T16:17:44.344Z,-1.9
2023-02-05T16:23:22.166Z,-2.1
2023-02-05T16:28:45.365Z,-2.3
2023-02-05T16:34:36.938Z,-2.5
2023-02-05T16:40:14.423Z,-2.7
2023-02-05T16:45:37.786Z,-2.8
2023-02-05T16:51:16.320Z,-3
2023-02-05T16:56:38.895Z,-3.1
2023-02-05T17:02:18.190Z,-3.3
2023-02-05T17:07:41.015Z,-3.4
2023-02-05T17:13:03.938Z,-3.6
2023-02-05T17:18:42.757Z,-3.6
2023-02-05T17:24:04.838Z,-3.8
2023-02-05T17:29:42.799Z,-3.9
2023-02-05T17:35:21.872Z,-4
2023-02-05T17:41:03.066Z,-4.1
2023-02-05T17:46:44.177Z,-4.2
2023-02-05T17:52:22.707Z,-4.3
2023-02-05T17:57:30.116Z,-4.4
2023-02-05T18:02:52.729Z,-4.4
2023-02-05T18:08:31.392Z,-4.5
2023-02-05T18:13:53.877Z,-4.6
2023-02-05T18:19:17.010Z,-4.6
2023-02-05T18:24:56.051Z,-4.7
2023-02-05T18:30:21.674Z,-4.8
2023-02-05T18:35:44.870Z,-4.8
2023-02-05T18:41:24.973Z,-4.8
2023-02-05T18:46:47.803Z,-4.9
2023-02-05T18:52:28.368Z,-4.9
2023-02-05T18:57:51.310Z,-4.9
2023-02-05T19:03:14.337Z,-5
2023-02-05T19:08:52.058Z,-5
2023-02-05T19:14:31.662Z,-5.1
2023-02-05T19:20:11.196Z,-5.1
2023-02-05T19:25:49.727Z,-5.1
2023-02-05T19:31:28.684Z,-5.1
2023-02-05T19:37:07.025Z,-5.2
2023-02-05T19:42:44.834Z,-5.2
2023-02-05T19:48:23.477Z,-5.3
2023-02-05T19:53:46.795Z,-5.3
2023-02-05T19:59:10.361Z,-5.3
2023-02-05T20:04:35.505Z,-5.3
2023-02-05T20:10:13.591Z,-5.4
2023-02-05T20:15:52.664Z,-5.4
2023-02-05T20:21:44.957Z,-5.4
2023-02-05T20:27:23.557Z,-5.4
2023-02-05T20:33:02.345Z,-5.4
2023-02-05T20:38:40.575Z,-5.4
2023-02-05T20:44:19.133Z,-5.4
2023-02-05T20:49:41.676Z,-5.5
2023-02-05T20:55:34.160Z,-5.5
2023-02-05T21:01:13.609Z,-5.5
2023-02-05T21:06:52.710Z,-5.5
2023-02-05T21:12:30.477Z,-5.6
2023-02-05T21:18:08.800Z,-5.6
2023-02-05T21:23:15.908Z,-5.6
2023-02-05T21:28:40.149Z,-5.6
2023-02-05T21:34:18.507Z,-5.6
2023-02-05T21:40:07.682Z,-5.6
2023-02-05T21:45:31.146Z,-5.6
2023-02-05T21:56:31.836Z,-5.7
2023-02-05T22:01:54.531Z,-5.7
2023-02-05T22:12:26.509Z,-5.7
2023-02-05T22:18:05.227Z,-5.8
2023-02-05T22:23:43.561Z,-5.8
2023-02-05T22:29:22.209Z,-5.8
2023-02-05T22:34:45.590Z,-5.8
2023-02-05T22:40:24.291Z,-5.8
2023-02-05T22:46:02.555Z,-5.8
2023-02-05T22:51:24.817Z,-5.8
2023-02-05T22:57:03.064Z,-5.8
2023-02-05T23:02:44.489Z,-5.9
2023-02-05T23:08:06.964Z,-5.9
2023-02-05T23:13:32.503Z,-5.9
2023-02-05T23:19:10.162Z,-5.9
2023-02-05T23:24:47.938Z,-5.9
2023-02-05T23:30:26.492Z,-5.9
2023-02-05T23:35:49.744Z,-6
2023-02-05T23:41:27.708Z,-6
2023-02-05T23:47:06.077Z,-6
2023-02-05T23:52:43.118Z,-6
2023-02-05T23:58:23.411Z,-6.1
